Terminal Aerodrome Forecast
Issued by NWS Portland, ME

Home | Current Version | Previous Version | Text Only | Print | Product List | Glossary On
Versions: 1 2 3 4 5 6 7 8 9 10 11 12 13 14 15 16 17 18 19 20
000
FTUS41 KGYX 020500
TAFPWM
TAF
KPWM 020538Z 0206/0306 VRB04KT P6SM SCT120 BKN200
     FM021200 21004KT P6SM BKN100 OVC200
     FM021500 17008KT P6SM VCSH SCT050 BKN080 OVC150
     FM030000 14006KT P6SM SCT030 BKN080=

USA.gov is the U.S. government's official web portal to all federal, state and local government web resources and services.